sensor_id;sensor_type;location;lat;lon;timestamp;temperature;humidity
55777;DHT22;54079;44.540;18.784;2023-02-15T00:01:29;6.90;72.90
55777;DHT22;54079;44.540;18.784;2023-02-15T00:03:55;6.80;71.90
55777;DHT22;54079;44.540;18.784;2023-02-15T00:06:21;6.80;72.60
55777;DHT22;54079;44.540;18.784;2023-02-15T00:08:47;6.90;71.90
55777;DHT22;54079;44.540;18.784;2023-02-15T00:11:15;6.90;71.50
55777;DHT22;54079;44.540;18.784;2023-02-15T00:13:42;6.90;71.30
55777;DHT22;54079;44.540;18.784;2023-02-15T00:16:12;6.90;72.40
55777;DHT22;54079;44.540;18.784;2023-02-15T00:18:39;7.00;71.10
55777;DHT22;54079;44.540;18.784;2023-02-15T00:21:07;6.90;71.00
55777;DHT22;54079;44.540;18.784;2023-02-15T00:23:34;6.80;71.20
55777;DHT22;54079;44.540;18.784;2023-02-15T00:26:11;6.70;70.90
55777;DHT22;54079;44.540;18.784;2023-02-15T00:28:38;6.70;71.30
55777;DHT22;54079;44.540;18.784;2023-02-15T00:31:09;6.80;71.60
55777;DHT22;54079;44.540;18.784;2023-02-15T00:33:36;6.80;71.50
55777;DHT22;54079;44.540;18.784;2023-02-15T00:36:03;6.80;70.60
55777;DHT22;54079;44.540;18.784;2023-02-15T00:38:30;6.70;71.40
55777;DHT22;54079;44.540;18.784;2023-02-15T00:40:58;6.70;71.00
55777;DHT22;54079;44.540;18.784;2023-02-15T00:43:26;6.70;72.30
55777;DHT22;54079;44.540;18.784;2023-02-15T00:45:52;6.80;72.30
55777;DHT22;54079;44.540;18.784;2023-02-15T00:48:19;6.80;71.70
55777;DHT22;54079;44.540;18.784;2023-02-15T00:50:46;6.70;71.50
55777;DHT22;54079;44.540;18.784;2023-02-15T00:53:13;6.60;71.60
55777;DHT22;54079;44.540;18.784;2023-02-15T00:55:39;6.70;71.30
55777;DHT22;54079;44.540;18.784;2023-02-15T00:58:06;6.70;72.20
55777;DHT22;54079;44.540;18.784;2023-02-15T01:00:32;6.70;72.00
55777;DHT22;54079;44.540;18.784;2023-02-15T01:02:58;6.80;72.00
55777;DHT22;54079;44.540;18.784;2023-02-15T01:05:24;6.70;72.10
55777;DHT22;54079;44.540;18.784;2023-02-15T01:07:50;6.80;71.50
55777;DHT22;54079;44.540;18.784;2023-02-15T01:10:17;6.80;71.50
55777;DHT22;54079;44.540;18.784;2023-02-15T01:12:43;6.80;72.70
55777;DHT22;54079;44.540;18.784;2023-02-15T01:15:09;6.90;71.00
55777;DHT22;54079;44.540;18.784;2023-02-15T01:17:35;7.00;70.80
55777;DHT22;54079;44.540;18.784;2023-02-15T01:20:01;6.90;70.60
55777;DHT22;54079;44.540;18.784;2023-02-15T01:22:27;7.00;70.30
55777;DHT22;54079;44.540;18.784;2023-02-15T01:24:53;6.90;71.10
55777;DHT22;54079;44.540;18.784;2023-02-15T01:27:19;7.00;70.80
55777;DHT22;54079;44.540;18.784;2023-02-15T01:29:45;7.00;70.80
55777;DHT22;54079;44.540;18.784;2023-02-15T01:32:12;7.00;72.30
55777;DHT22;54079;44.540;18.784;2023-02-15T01:34:38;7.10;71.20
55777;DHT22;54079;44.540;18.784;2023-02-15T01:37:04;7.20;71.20
55777;DHT22;54079;44.540;18.784;2023-02-15T01:39:30;7.20;69.50
55777;DHT22;54079;44.540;18.784;2023-02-15T01:41:56;7.20;69.60
55777;DHT22;54079;44.540;18.784;2023-02-15T01:47:17;7.20;71.40
55777;DHT22;54079;44.540;18.784;2023-02-15T01:49:47;7.00;72.20
55777;DHT22;54079;44.540;18.784;2023-02-15T01:52:16;6.90;71.60
55777;DHT22;54079;44.540;18.784;2023-02-15T01:54:44;6.90;71.80
55777;DHT22;54079;44.540;18.784;2023-02-15T01:57:16;6.90;70.40
55777;DHT22;54079;44.540;18.784;2023-02-15T01:59:46;6.80;72.50
55777;DHT22;54079;44.540;18.784;2023-02-15T02:02:14;7.00;72.20
55777;DHT22;54079;44.540;18.784;2023-02-15T02:04:48;7.00;71.80
55777;DHT22;54079;44.540;18.784;2023-02-15T02:07:15;7.00;71.80
55777;DHT22;54079;44.540;18.784;2023-02-15T02:09:44;7.00;72.10
55777;DHT22;54079;44.540;18.784;2023-02-15T02:12:10;6.90;72.30
55777;DHT22;54079;44.540;18.784;2023-02-15T02:14:37;6.90;72.00
55777;DHT22;54079;44.540;18.784;2023-02-15T02:20:00;6.70;71.90
55777;DHT22;54079;44.540;18.784;2023-02-15T02:42:10;6.60;72.70
55777;DHT22;54079;44.540;18.784;2023-02-15T02:44:41;6.50;72.20
55777;DHT22;54079;44.540;18.784;2023-02-15T02:47:26;6.50;71.90
55777;DHT22;54079;44.540;18.784;2023-02-15T02:50:05;6.60;71.20
55777;DHT22;54079;44.540;18.784;2023-02-15T02:58:02;6.60;71.10
55777;DHT22;54079;44.540;18.784;2023-02-15T03:00:34;6.60;71.90
55777;DHT22;54079;44.540;18.784;2023-02-15T03:03:25;6.90;71.60
55777;DHT22;54079;44.540;18.784;2023-02-15T03:05:55;7.00;72.30
55777;DHT22;54079;44.540;18.784;2023-02-15T03:08:25;6.90;72.40
55777;DHT22;54079;44.540;18.784;2023-02-15T03:10:55;6.90;72.40
55777;DHT22;54079;44.540;18.784;2023-02-15T03:13:22;6.90;72.10
55777;DHT22;54079;44.540;18.784;2023-02-15T03:15:50;7.00;71.50
55777;DHT22;54079;44.540;18.784;2023-02-15T03:18:44;7.00;71.10
55777;DHT22;54079;44.540;18.784;2023-02-15T03:21:21;7.00;70.90
55777;DHT22;54079;44.540;18.784;2023-02-15T03:23:57;6.90;70.70
55777;DHT22;54079;44.540;18.784;2023-02-15T03:26:25;6.90;70.90
55777;DHT22;54079;44.540;18.784;2023-02-15T03:28:55;6.80;71.90
55777;DHT22;54079;44.540;18.784;2023-02-15T03:31:26;6.90;71.70
55777;DHT22;54079;44.540;18.784;2023-02-15T03:34:00;7.00;71.80
55777;DHT22;54079;44.540;18.784;2023-02-15T03:37:22;7.00;71.60
55777;DHT22;54079;44.540;18.784;2023-02-15T03:39:53;6.90;71.90
55777;DHT22;54079;44.540;18.784;2023-02-15T03:42:30;6.70;72.00
55777;DHT22;54079;44.540;18.784;2023-02-15T03:45:10;6.60;72.20
55777;DHT22;54079;44.540;18.784;2023-02-15T03:47:43;6.70;71.50
55777;DHT22;54079;44.540;18.784;2023-02-15T03:50:20;6.60;72.00
55777;DHT22;54079;44.540;18.784;2023-02-15T03:53:09;6.60;71.60
55777;DHT22;54079;44.540;18.784;2023-02-15T03:55:36;6.50;71.70
55777;DHT22;54079;44.540;18.784;2023-02-15T03:58:03;6.40;72.10
55777;DHT22;54079;44.540;18.784;2023-02-15T04:00:57;6.40;71.90
55777;DHT22;54079;44.540;18.784;2023-02-15T04:03:48;6.40;72.30
55777;DHT22;54079;44.540;18.784;2023-02-15T04:06:15;6.50;72.00
55777;DHT22;54079;44.540;18.784;2023-02-15T04:08:41;6.40;71.90
55777;DHT22;54079;44.540;18.784;2023-02-15T04:11:25;6.40;71.40
55777;DHT22;54079;44.540;18.784;2023-02-15T04:13:51;6.40;72.00
55777;DHT22;54079;44.540;18.784;2023-02-15T04:16:25;6.60;72.90
55777;DHT22;54079;44.540;18.784;2023-02-15T04:18:51;6.70;72.30
55777;DHT22;54079;44.540;18.784;2023-02-15T04:21:36;6.80;70.50
55777;DHT22;54079;44.540;18.784;2023-02-15T04:24:20;6.70;70.20
55777;DHT22;54079;44.540;18.784;2023-02-15T04:27:05;6.60;70.40
55777;DHT22;54079;44.540;18.784;2023-02-15T04:29:31;6.60;72.20
55777;DHT22;54079;44.540;18.784;2023-02-15T04:31:59;6.50;73.20
55777;DHT22;54079;44.540;18.784;2023-02-15T04:34:26;6.40;72.30
55777;DHT22;54079;44.540;18.784;2023-02-15T04:36:52;6.20;72.90
55777;DHT22;54079;44.540;18.784;2023-02-15T04:39:18;6.20;73.90
55777;DHT22;54079;44.540;18.784;2023-02-15T04:41:44;6.20;74.50
55777;DHT22;54079;44.540;18.784;2023-02-15T04:44:11;6.30;74.40
55777;DHT22;54079;44.540;18.784;2023-02-15T04:46:37;6.40;73.50
55777;DHT22;54079;44.540;18.784;2023-02-15T04:49:03;6.40;72.90
55777;DHT22;54079;44.540;18.784;2023-02-15T04:51:29;6.30;73.00
55777;DHT22;54079;44.540;18.784;2023-02-15T04:53:55;6.20;72.80
55777;DHT22;54079;44.540;18.784;2023-02-15T04:56:22;6.10;73.30
55777;DHT22;54079;44.540;18.784;2023-02-15T04:58:48;6.10;73.00
55777;DHT22;54079;44.540;18.784;2023-02-15T05:01:14;6.20;73.60
55777;DHT22;54079;44.540;18.784;2023-02-15T05:03:40;6.40;73.90
55777;DHT22;54079;44.540;18.784;2023-02-15T05:06:06;6.30;73.80
55777;DHT22;54079;44.540;18.784;2023-02-15T05:08:32;6.10;74.00
55777;DHT22;54079;44.540;18.784;2023-02-15T05:10:58;6.00;73.90
55777;DHT22;54079;44.540;18.784;2023-02-15T05:13:24;6.20;73.00
55777;DHT22;54079;44.540;18.784;2023-02-15T05:15:51;6.10;72.90
55777;DHT22;54079;44.540;18.784;2023-02-15T05:18:19;6.20;72.50
55777;DHT22;54079;44.540;18.784;2023-02-15T05:20:45;6.20;73.20
55777;DHT22;54079;44.540;18.784;2023-02-15T05:23:11;6.30;74.60
55777;DHT22;54079;44.540;18.784;2023-02-15T05:25:37;6.20;73.40
55777;DHT22;54079;44.540;18.784;2023-02-15T05:28:25;6.20;72.60
55777;DHT22;54079;44.540;18.784;2023-02-15T05:31:10;6.10;74.40
55777;DHT22;54079;44.540;18.784;2023-02-15T05:33:37;6.10;74.60
55777;DHT22;54079;44.540;18.784;2023-02-15T05:36:04;5.90;75.00
55777;DHT22;54079;44.540;18.784;2023-02-15T05:38:30;6.10;74.30
55777;DHT22;54079;44.540;18.784;2023-02-15T05:40:56;6.10;74.00
55777;DHT22;54079;44.540;18.784;2023-02-15T05:43:22;5.90;74.50
55777;DHT22;54079;44.540;18.784;2023-02-15T05:45:53;6.00;74.70
55777;DHT22;54079;44.540;18.784;2023-02-15T05:48:22;6.10;75.60
55777;DHT22;54079;44.540;18.784;2023-02-15T05:51:00;6.00;73.90
55777;DHT22;54079;44.540;18.784;2023-02-15T05:53:27;6.00;73.50
55777;DHT22;54079;44.540;18.784;2023-02-15T05:55:54;6.00;73.50
55777;DHT22;54079;44.540;18.784;2023-02-15T05:58:34;6.10;74.70
55777;DHT22;54079;44.540;18.784;2023-02-15T06:01:12;6.30;74.70
55777;DHT22;54079;44.540;18.784;2023-02-15T06:03:38;6.40;72.90
55777;DHT22;54079;44.540;18.784;2023-02-15T06:06:05;6.40;71.90
55777;DHT22;54079;44.540;18.784;2023-02-15T06:08:32;6.50;73.70
55777;DHT22;54079;44.540;18.784;2023-02-15T06:10:58;6.50;73.60
55777;DHT22;54079;44.540;18.784;2023-02-15T06:13:24;6.60;73.30
55777;DHT22;54079;44.540;18.784;2023-02-15T06:15:50;6.40;71.90
55777;DHT22;54079;44.540;18.784;2023-02-15T06:18:16;6.60;73.30
55777;DHT22;54079;44.540;18.784;2023-02-15T06:20:44;6.80;72.50
55777;DHT22;54079;44.540;18.784;2023-02-15T06:23:10;6.60;72.20
55777;DHT22;54079;44.540;18.784;2023-02-15T06:25:36;6.50;72.50
55777;DHT22;54079;44.540;18.784;2023-02-15T06:28:02;6.60;73.10
55777;DHT22;54079;44.540;18.784;2023-02-15T06:30:28;6.80;73.10
55777;DHT22;54079;44.540;18.784;2023-02-15T06:32:54;7.00;72.80
55777;DHT22;54079;44.540;18.784;2023-02-15T06:35:20;7.10;71.70
55777;DHT22;54079;44.540;18.784;2023-02-15T06:37:47;6.90;71.40
55777;DHT22;54079;44.540;18.784;2023-02-15T06:40:14;6.90;71.40
55777;DHT22;54079;44.540;18.784;2023-02-15T06:42:41;7.00;70.50
55777;DHT22;54079;44.540;18.784;2023-02-15T06:45:08;7.10;71.00
55777;DHT22;54079;44.540;18.784;2023-02-15T06:47:34;7.10;72.90
55777;DHT22;54079;44.540;18.784;2023-02-15T06:50:00;7.10;72.30
55777;DHT22;54079;44.540;18.784;2023-02-15T06:52:26;6.80;72.30
55777;DHT22;54079;44.540;18.784;2023-02-15T06:54:53;6.90;72.40
55777;DHT22;54079;44.540;18.784;2023-02-15T06:57:19;6.90;72.70
55777;DHT22;54079;44.540;18.784;2023-02-15T06:59:45;6.90;72.90
55777;DHT22;54079;44.540;18.784;2023-02-15T07:02:12;6.90;72.40
55777;DHT22;54079;44.540;18.784;2023-02-15T07:04:38;6.90;72.00
55777;DHT22;54079;44.540;18.784;2023-02-15T07:07:07;6.70;72.20
55777;DHT22;54079;44.540;18.784;2023-02-15T07:09:33;6.50;72.80
55777;DHT22;54079;44.540;18.784;2023-02-15T07:11:59;6.50;73.10
55777;DHT22;54079;44.540;18.784;2023-02-15T07:14:43;6.60;72.00
55777;DHT22;54079;44.540;18.784;2023-02-15T07:17:09;6.70;72.00
55777;DHT22;54079;44.540;18.784;2023-02-15T07:19:35;6.70;71.80
55777;DHT22;54079;44.540;18.784;2023-02-15T07:22:01;6.90;71.30
55777;DHT22;54079;44.540;18.784;2023-02-15T07:24:29;6.80;71.20
55777;DHT22;54079;44.540;18.784;2023-02-15T07:26:55;7.20;71.20
55777;DHT22;54079;44.540;18.784;2023-02-15T07:29:21;8.00;69.60
55777;DHT22;54079;44.540;18.784;2023-02-15T07:31:47;9.00;67.10
55777;DHT22;54079;44.540;18.784;2023-02-15T07:34:13;10.30;65.00
55777;DHT22;54079;44.540;18.784;2023-02-15T07:36:39;11.40;61.20
55777;DHT22;54079;44.540;18.784;2023-02-15T07:39:05;12.50;59.30
55777;DHT22;54079;44.540;18.784;2023-02-15T07:41:31;13.30;58.00
55777;DHT22;54079;44.540;18.784;2023-02-15T07:43:57;14.20;56.10
55777;DHT22;54079;44.540;18.784;2023-02-15T07:46:23;14.90;54.50
55777;DHT22;54079;44.540;18.784;2023-02-15T07:48:49;15.60;53.00
55777;DHT22;54079;44.540;18.784;2023-02-15T07:51:15;16.00;52.70
55777;DHT22;54079;44.540;18.784;2023-02-15T07:53:42;16.10;50.50
55777;DHT22;54079;44.540;18.784;2023-02-15T07:56:12;17.00;50.00
55777;DHT22;54079;44.540;18.784;2023-02-15T07:58:39;17.80;49.30
55777;DHT22;54079;44.540;18.784;2023-02-15T08:01:22;17.80;48.00
55777;DHT22;54079;44.540;18.784;2023-02-15T08:03:48;18.30;46.10
55777;DHT22;54079;44.540;18.784;2023-02-15T08:06:15;18.20;49.50
55777;DHT22;54079;44.540;18.784;2023-02-15T08:08:41;18.90;46.70
55777;DHT22;54079;44.540;18.784;2023-02-15T08:11:20;19.10;44.80
55777;DHT22;54079;44.540;18.784;2023-02-15T08:16:41;19.30;44.70
55777;DHT22;54079;44.540;18.784;2023-02-15T08:21:41;20.30;43.90
55777;DHT22;54079;44.540;18.784;2023-02-15T08:24:09;20.30;42.30
55777;DHT22;54079;44.540;18.784;2023-02-15T08:26:35;20.50;41.80
55777;DHT22;54079;44.540;18.784;2023-02-15T08:29:02;20.90;42.60
55777;DHT22;54079;44.540;18.784;2023-02-15T08:31:28;21.60;40.50
55777;DHT22;54079;44.540;18.784;2023-02-15T08:33:56;21.70;41.00
55777;DHT22;54079;44.540;18.784;2023-02-15T08:36:28;22.20;40.00
55777;DHT22;54079;44.540;18.784;2023-02-15T08:38:57;22.50;40.00
55777;DHT22;54079;44.540;18.784;2023-02-15T08:41:26;22.80;40.10
55777;DHT22;54079;44.540;18.784;2023-02-15T08:43:54;23.10;40.10
55777;DHT22;54079;44.540;18.784;2023-02-15T08:46:22;23.50;38.90
55777;DHT22;54079;44.540;18.784;2023-02-15T08:48:48;23.10;39.50
55777;DHT22;54079;44.540;18.784;2023-02-15T08:51:17;22.40;38.60
55777;DHT22;54079;44.540;18.784;2023-02-15T08:53:48;22.40;39.60
55777;DHT22;54079;44.540;18.784;2023-02-15T08:56:14;23.00;39.60
55777;DHT22;54079;44.540;18.784;2023-02-15T08:58:40;23.40;38.80
55777;DHT22;54079;44.540;18.784;2023-02-15T09:01:11;23.20;38.70
55777;DHT22;54079;44.540;18.784;2023-02-15T09:03:37;23.00;39.20
55777;DHT22;54079;44.540;18.784;2023-02-15T09:06:04;22.60;39.50
55777;DHT22;54079;44.540;18.784;2023-02-15T09:08:30;22.50;39.00
55777;DHT22;54079;44.540;18.784;2023-02-15T09:11:05;22.80;39.20
55777;DHT22;54079;44.540;18.784;2023-02-15T09:13:32;22.60;39.00
55777;DHT22;54079;44.540;18.784;2023-02-15T09:16:06;23.00;38.60
55777;DHT22;54079;44.540;18.784;2023-02-15T09:18:35;22.90;37.90
55777;DHT22;54079;44.540;18.784;2023-02-15T09:21:06;22.40;39.20
55777;DHT22;54079;44.540;18.784;2023-02-15T09:23:33;22.60;39.90
55777;DHT22;54079;44.540;18.784;2023-02-15T09:26:03;22.50;40.00
55777;DHT22;54079;44.540;18.784;2023-02-15T09:28:29;21.90;39.30
55777;DHT22;54079;44.540;18.784;2023-02-15T09:31:05;21.90;40.30
55777;DHT22;54079;44.540;18.784;2023-02-15T09:33:33;21.30;39.50
55777;DHT22;54079;44.540;18.784;2023-02-15T09:36:00;20.60;39.90
55777;DHT22;54079;44.540;18.784;2023-02-15T09:38:26;20.40;41.70
55777;DHT22;54079;44.540;18.784;2023-02-15T09:46:54;18.10;43.00
55777;DHT22;54079;44.540;18.784;2023-02-15T10:05:54;13.70;52.90
55777;DHT22;54079;44.540;18.784;2023-02-15T10:11:14;13.00;53.60
55777;DHT22;54079;44.540;18.784;2023-02-15T10:17:04;12.40;54.80
55777;DHT22;54079;44.540;18.784;2023-02-15T10:19:53;12.40;55.20
55777;DHT22;54079;44.540;18.784;2023-02-15T10:27:51;12.50;55.90
55777;DHT22;54079;44.540;18.784;2023-02-15T10:33:04;12.60;55.30
55777;DHT22;54079;44.540;18.784;2023-02-15T10:38:49;12.60;53.30
55777;DHT22;54079;44.540;18.784;2023-02-15T10:41:33;12.60;55.50
55777;DHT22;54079;44.540;18.784;2023-02-15T10:44:19;12.30;56.70
55777;DHT22;54079;44.540;18.784;2023-02-15T10:47:03;12.40;55.80
55777;DHT22;54079;44.540;18.784;2023-02-15T10:57:53;12.50;56.80
55777;DHT22;54079;44.540;18.784;2023-02-15T11:00:32;12.60;55.30
55777;DHT22;54079;44.540;18.784;2023-02-15T11:06:04;12.70;55.60
55777;DHT22;54079;44.540;18.784;2023-02-15T11:08:34;12.90;56.60
55777;DHT22;54079;44.540;18.784;2023-02-15T11:11:05;12.80;56.20
55777;DHT22;54079;44.540;18.784;2023-02-15T11:13:44;12.80;55.90
55777;DHT22;54079;44.540;18.784;2023-02-15T11:16:26;12.90;55.80
55777;DHT22;54079;44.540;18.784;2023-02-15T11:19:19;12.90;54.90
55777;DHT22;54079;44.540;18.784;2023-02-15T11:21:49;12.80;55.70
55777;DHT22;54079;44.540;18.784;2023-02-15T11:24:19;12.40;55.70
55777;DHT22;54079;44.540;18.784;2023-02-15T11:26:54;12.60;57.50
55777;DHT22;54079;44.540;18.784;2023-02-15T11:29:28;12.80;55.70
55777;DHT22;54079;44.540;18.784;2023-02-15T11:32:02;12.90;55.40
55777;DHT22;54079;44.540;18.784;2023-02-15T11:34:36;13.10;56.50
55777;DHT22;54079;44.540;18.784;2023-02-15T11:37:13;13.00;56.20
55777;DHT22;54079;44.540;18.784;2023-02-15T11:39:42;12.90;55.00
55777;DHT22;54079;44.540;18.784;2023-02-15T11:42:19;12.90;57.00
55777;DHT22;54079;44.540;18.784;2023-02-15T11:47:50;13.20;55.10
55777;DHT22;54079;44.540;18.784;2023-02-15T11:50:21;13.20;56.50
55777;DHT22;54079;44.540;18.784;2023-02-15T11:53:03;13.20;56.30
55777;DHT22;54079;44.540;18.784;2023-02-15T11:55:30;13.20;57.90
55777;DHT22;54079;44.540;18.784;2023-02-15T11:58:04;13.30;56.20
55777;DHT22;54079;44.540;18.784;2023-02-15T12:00:47;13.30;56.30
55777;DHT22;54079;44.540;18.784;2023-02-15T12:03:19;13.30;56.00
55777;DHT22;54079;44.540;18.784;2023-02-15T12:05:50;13.40;56.30
55777;DHT22;54079;44.540;18.784;2023-02-15T12:08:22;13.30;55.00
55777;DHT22;54079;44.540;18.784;2023-02-15T12:10:58;13.40;55.10
55777;DHT22;54079;44.540;18.784;2023-02-15T12:13:26;13.40;55.00
55777;DHT22;54079;44.540;18.784;2023-02-15T12:15:54;13.50;56.00
55777;DHT22;54079;44.540;18.784;2023-02-15T12:18:38;13.50;55.10
55777;DHT22;54079;44.540;18.784;2023-02-15T12:21:09;13.50;55.00
55777;DHT22;54079;44.540;18.784;2023-02-15T12:23:50;13.50;55.10
55777;DHT22;54079;44.540;18.784;2023-02-15T12:28:52;13.60;55.40
55777;DHT22;54079;44.540;18.784;2023-02-15T12:31:24;13.50;54.40
55777;DHT22;54079;44.540;18.784;2023-02-15T12:33:54;13.50;55.10
55777;DHT22;54079;44.540;18.784;2023-02-15T12:36:24;13.60;55.60
55777;DHT22;54079;44.540;18.784;2023-02-15T12:39:23;13.60;55.00
55777;DHT22;54079;44.540;18.784;2023-02-15T12:44:32;13.70;54.30
55777;DHT22;54079;44.540;18.784;2023-02-15T12:47:05;13.60;53.60
55777;DHT22;54079;44.540;18.784;2023-02-15T12:49:36;13.60;54.30
55777;DHT22;54079;44.540;18.784;2023-02-15T12:52:25;13.70;54.60
55777;DHT22;54079;44.540;18.784;2023-02-15T12:54:52;13.70;54.40
55777;DHT22;54079;44.540;18.784;2023-02-15T12:59:56;13.60;53.50
55777;DHT22;54079;44.540;18.784;2023-02-15T13:04:55;13.60;54.00
55777;DHT22;54079;44.540;18.784;2023-02-15T13:07:24;13.50;53.90
55777;DHT22;54079;44.540;18.784;2023-02-15T13:09:51;13.60;55.90
55777;DHT22;54079;44.540;18.784;2023-02-15T13:12:21;13.70;55.20
55777;DHT22;54079;44.540;18.784;2023-02-15T13:14:51;13.80;55.00
55777;DHT22;54079;44.540;18.784;2023-02-15T13:17:21;13.90;54.70
55777;DHT22;54079;44.540;18.784;2023-02-15T13:19:53;13.90;54.70
55777;DHT22;54079;44.540;18.784;2023-02-15T13:22:37;13.80;52.80
55777;DHT22;54079;44.540;18.784;2023-02-15T13:32:24;14.00;54.00
55777;DHT22;54079;44.540;18.784;2023-02-15T13:34:47;13.90;54.20
55777;DHT22;54079;44.540;18.784;2023-02-15T13:37:35;14.00;54.50
55777;DHT22;54079;44.540;18.784;2023-02-15T13:43:20;14.00;55.10
55777;DHT22;54079;44.540;18.784;2023-02-15T13:49:09;14.00;53.80
55777;DHT22;54079;44.540;18.784;2023-02-15T13:54:41;14.00;54.30
55777;DHT22;54079;44.540;18.784;2023-02-15T14:08:45;14.20;53.30
55777;DHT22;54079;44.540;18.784;2023-02-15T14:23:05;14.10;53.50
55777;DHT22;54079;44.540;18.784;2023-02-15T14:25:48;14.00;53.40
55777;DHT22;54079;44.540;18.784;2023-02-15T14:28:22;14.10;53.20
55777;DHT22;54079;44.540;18.784;2023-02-15T14:30:54;14.00;53.90
55777;DHT22;54079;44.540;18.784;2023-02-15T14:33:39;14.00;54.60
55777;DHT22;54079;44.540;18.784;2023-02-15T14:36:11;14.00;54.90
55777;DHT22;54079;44.540;18.784;2023-02-15T14:42:09;13.90;55.40
55777;DHT22;54079;44.540;18.784;2023-02-15T14:44:43;13.70;54.80
55777;DHT22;54079;44.540;18.784;2023-02-15T14:47:25;13.60;55.10
55777;DHT22;54079;44.540;18.784;2023-02-15T14:49:52;13.60;55.90
55777;DHT22;54079;44.540;18.784;2023-02-15T14:52:18;13.50;56.10
55777;DHT22;54079;44.540;18.784;2023-02-15T15:02:42;13.40;55.20
55777;DHT22;54079;44.540;18.784;2023-02-15T15:07:41;13.20;55.60
55777;DHT22;54079;44.540;18.784;2023-02-15T15:12:43;13.10;56.80
55777;DHT22;54079;44.540;18.784;2023-02-15T15:18:09;12.80;57.50
55777;DHT22;54079;44.540;18.784;2023-02-15T15:20:49;12.80;57.90
55777;DHT22;54079;44.540;18.784;2023-02-15T15:25:56;12.50;57.30
55777;DHT22;54079;44.540;18.784;2023-02-15T15:42:13;11.70;59.10
55777;DHT22;54079;44.540;18.784;2023-02-15T15:50:45;11.50;59.80
55777;DHT22;54079;44.540;18.784;2023-02-15T15:53:22;11.40;60.90
55777;DHT22;54079;44.540;18.784;2023-02-15T15:55:52;11.30;60.70
55777;DHT22;54079;44.540;18.784;2023-02-15T15:58:20;11.20;60.70
55777;DHT22;54079;44.540;18.784;2023-02-15T16:03:52;10.90;62.00
55777;DHT22;54079;44.540;18.784;2023-02-15T16:06:37;10.80;62.50
55777;DHT22;54079;44.540;18.784;2023-02-15T16:09:17;10.70;62.60
55777;DHT22;54079;44.540;18.784;2023-02-15T16:11:47;10.50;62.90
55777;DHT22;54079;44.540;18.784;2023-02-15T16:14:18;10.40;63.30
55777;DHT22;54079;44.540;18.784;2023-02-15T16:16:51;10.30;62.90
55777;DHT22;54079;44.540;18.784;2023-02-15T16:22:23;10.00;63.50
55777;DHT22;54079;44.540;18.784;2023-02-15T16:27:37;9.70;64.20
55777;DHT22;54079;44.540;18.784;2023-02-15T16:30:36;9.50;64.60
55777;DHT22;54079;44.540;18.784;2023-02-15T16:33:11;9.30;64.80
55777;DHT22;54079;44.540;18.784;2023-02-15T16:35:39;9.10;65.20
55777;DHT22;54079;44.540;18.784;2023-02-15T16:38:09;8.90;65.60
55777;DHT22;54079;44.540;18.784;2023-02-15T16:40:48;8.80;66.20
55777;DHT22;54079;44.540;18.784;2023-02-15T16:43:21;8.70;66.30
55777;DHT22;54079;44.540;18.784;2023-02-15T16:45:48;8.60;66.50
55777;DHT22;54079;44.540;18.784;2023-02-15T16:48:20;8.50;66.70
55777;DHT22;54079;44.540;18.784;2023-02-15T16:50:53;8.40;67.00
55777;DHT22;54079;44.540;18.784;2023-02-15T16:53:26;8.40;67.10
55777;DHT22;54079;44.540;18.784;2023-02-15T16:55:58;8.30;67.60
55777;DHT22;54079;44.540;18.784;2023-02-15T16:58:43;8.20;67.80
55777;DHT22;54079;44.540;18.784;2023-02-15T17:01:13;8.20;68.00
55777;DHT22;54079;44.540;18.784;2023-02-15T17:03:41;8.10;68.20
55777;DHT22;54079;44.540;18.784;2023-02-15T17:06:25;8.10;68.80
55777;DHT22;54079;44.540;18.784;2023-02-15T17:08:52;8.00;68.50
55777;DHT22;54079;44.540;18.784;2023-02-15T17:11:35;7.90;68.90
55777;DHT22;54079;44.540;18.784;2023-02-15T17:16:53;7.80;69.20
55777;DHT22;54079;44.540;18.784;2023-02-15T17:21:55;7.80;69.80
55777;DHT22;54079;44.540;18.784;2023-02-15T17:24:48;7.70;69.40
55777;DHT22;54079;44.540;18.784;2023-02-15T17:27:24;7.60;69.80
55777;DHT22;54079;44.540;18.784;2023-02-15T17:30:02;7.50;70.20
55777;DHT22;54079;44.540;18.784;2023-02-15T17:32:30;7.40;70.30
55777;DHT22;54079;44.540;18.784;2023-02-15T17:34:58;7.40;70.60
55777;DHT22;54079;44.540;18.784;2023-02-15T17:40:19;7.30;71.30
55777;DHT22;54079;44.540;18.784;2023-02-15T17:42:45;7.30;71.20
55777;DHT22;54079;44.540;18.784;2023-02-15T17:45:11;7.30;71.30
55777;DHT22;54079;44.540;18.784;2023-02-15T17:47:37;7.30;71.20
55777;DHT22;54079;44.540;18.784;2023-02-15T17:50:06;7.30;71.40
55777;DHT22;54079;44.540;18.784;2023-02-15T17:52:33;7.20;71.40
55777;DHT22;54079;44.540;18.784;2023-02-15T17:55:08;7.20;71.50
55777;DHT22;54079;44.540;18.784;2023-02-15T17:57:56;7.20;71.40
55777;DHT22;54079;44.540;18.784;2023-02-15T18:00:22;7.10;71.80
55777;DHT22;54079;44.540;18.784;2023-02-15T18:03:10;7.10;71.80
55777;DHT22;54079;44.540;18.784;2023-02-15T18:05:55;7.00;71.90
55777;DHT22;54079;44.540;18.784;2023-02-15T18:08:41;7.00;72.10
55777;DHT22;54079;44.540;18.784;2023-02-15T18:11:26;6.90;72.20
55777;DHT22;54079;44.540;18.784;2023-02-15T18:14:03;6.90;72.70
55777;DHT22;54079;44.540;18.784;2023-02-15T18:16:37;6.80;72.70
55777;DHT22;54079;44.540;18.784;2023-02-15T18:19:13;6.90;72.70
55777;DHT22;54079;44.540;18.784;2023-02-15T18:21:40;6.80;72.70
55777;DHT22;54079;44.540;18.784;2023-02-15T18:24:17;6.70;72.90
55777;DHT22;54079;44.540;18.784;2023-02-15T18:26:44;6.70;73.10
55777;DHT22;54079;44.540;18.784;2023-02-15T18:29:10;6.70;73.20
55777;DHT22;54079;44.540;18.784;2023-02-15T18:31:36;6.70;73.50
55777;DHT22;54079;44.540;18.784;2023-02-15T18:34:03;6.70;73.40
55777;DHT22;54079;44.540;18.784;2023-02-15T18:36:44;6.60;73.90
55777;DHT22;54079;44.540;18.784;2023-02-15T18:39:26;6.50;73.90
55777;DHT22;54079;44.540;18.784;2023-02-15T18:41:54;6.50;74.00
55777;DHT22;54079;44.540;18.784;2023-02-15T18:44:20;6.40;73.80
55777;DHT22;54079;44.540;18.784;2023-02-15T18:46:46;6.40;74.20
55777;DHT22;54079;44.540;18.784;2023-02-15T18:49:12;6.40;74.40
55777;DHT22;54079;44.540;18.784;2023-02-15T18:51:38;6.40;74.60
55777;DHT22;54079;44.540;18.784;2023-02-15T18:54:21;6.40;74.30
55777;DHT22;54079;44.540;18.784;2023-02-15T18:56:49;6.30;74.50
55777;DHT22;54079;44.540;18.784;2023-02-15T18:59:18;6.30;74.60
55777;DHT22;54079;44.540;18.784;2023-02-15T19:01:44;6.20;74.80
55777;DHT22;54079;44.540;18.784;2023-02-15T19:04:10;6.10;74.50
55777;DHT22;54079;44.540;18.784;2023-02-15T19:06:36;6.00;75.30
55777;DHT22;54079;44.540;18.784;2023-02-15T19:09:04;6.00;75.10